Time,TemperatureF,DewpointF,PressureIn,WindDirection,WindDirectionDegrees,WindSpeedMPH,WindSpeedGustMPH,Humidity,HourlyPrecipIn,Conditions,Clouds,dailyrainin,SoftwareType,DateUTC
2013-08-24 00:23:00,-999.0,-99.9,29.69,North,-999,-999.0,-999.0,-999,-99.99,,,0.00,weatherlink.com 1.10,2013-08-24 08:23:00,
2013-08-24 00:38:00,-999.0,-99.9,29.70,North,-999,-999.0,-999.0,-999,-99.99,,,0.00,weatherlink.com 1.10,2013-08-24 08:38:00,
2013-08-24 00:53:00,-999.0,-99.9,29.70,North,-999,-999.0,-999.0,-999,-99.99,,,0.00,weatherlink.com 1.10,2013-08-24 08:53:00,
2013-08-24 01:08:00,-999.0,-99.9,29.71,North,-999,-999.0,-999.0,-999,-99.99,,,0.00,weatherlink.com 1.10,2013-08-24 09:08:00,
2013-08-24 01:23:00,-999.0,-99.9,29.71,North,-999,-999.0,-999.0,-999,-99.99,,,0.00,weatherlink.com 1.10,2013-08-24 09:23:00,
2013-08-24 01:38:00,-999.0,-99.9,29.72,North,-999,-999.0,-999.0,-999,-99.99,,,0.00,weatherlink.com 1.10,2013-08-24 09:38:00,
2013-08-24 01:53:00,-999.0,-99.9,29.72,North,-999,-999.0,-999.0,-999,-99.99,,,0.00,weatherlink.com 1.10,2013-08-24 09:53:00,
2013-08-24 02:08:00,-999.0,-99.9,29.73,North,-999,-999.0,-999.0,-999,-99.99,,,0.00,weatherlink.com 1.10,2013-08-24 10:08:00,
2013-08-24 02:23:00,-999.0,-99.9,29.73,North,-999,-999.0,-999.0,-999,-99.99,,,0.00,weatherlink.com 1.10,2013-08-24 10:23:00,
2013-08-24 02:38:00,-999.0,-99.9,29.73,North,-999,-999.0,-999.0,-999,-99.99,,,0.00,weatherlink.com 1.10,2013-08-24 10:38:00,
2013-08-24 02:53:00,-999.0,-99.9,29.74,North,-999,-999.0,-999.0,-999,-99.99,,,0.00,weatherlink.com 1.10,2013-08-24 10:53:00,
2013-08-24 03:08:00,-999.0,-99.9,29.74,North,-999,-999.0,-999.0,-999,-99.99,,,0.00,weatherlink.com 1.10,2013-08-24 11:08:00,
2013-08-24 03:23:00,-999.0,-99.9,29.75,North,-999,-999.0,-999.0,-999,-99.99,,,0.00,weatherlink.com 1.10,2013-08-24 11:23:00,
2013-08-24 03:38:00,-999.0,-99.9,29.75,North,-999,-999.0,-999.0,-999,-99.99,,,0.00,weatherlink.com 1.10,2013-08-24 11:38:00,
2013-08-24 03:54:00,-999.0,-99.9,29.75,North,-999,-999.0,-999.0,-999,-99.99,,,0.00,weatherlink.com 1.10,2013-08-24 11:54:00,
2013-08-24 04:09:00,-999.0,-99.9,29.75,North,-999,-999.0,-999.0,-999,-99.99,,,0.00,weatherlink.com 1.10,2013-08-24 12:09:00,
2013-08-24 04:24:00,-999.0,-99.9,29.76,North,-999,-999.0,-999.0,-999,-99.99,,,0.00,weatherlink.com 1.10,2013-08-24 12:24:00,
2013-08-24 04:39:00,-999.0,-99.9,29.77,North,-999,-999.0,-999.0,-999,-99.99,,,0.00,weatherlink.com 1.10,2013-08-24 12:39:00,
2013-08-24 04:54:00,-999.0,-99.9,29.77,North,-999,-999.0,-999.0,-999,-99.99,,,0.00,weatherlink.com 1.10,2013-08-24 12:54:00,
2013-08-24 05:09:00,-999.0,-99.9,29.78,North,-999,-999.0,-999.0,-999,-99.99,,,0.00,weatherlink.com 1.10,2013-08-24 13:09:00,
2013-08-24 05:24:00,-999.0,-99.9,29.78,North,-999,-999.0,-999.0,-999,-99.99,,,0.00,weatherlink.com 1.10,2013-08-24 13:24:00,
2013-08-24 05:39:00,-999.0,-99.9,29.78,North,-999,-999.0,-999.0,-999,-99.99,,,0.00,weatherlink.com 1.10,2013-08-24 13:39:00,
2013-08-24 05:54:00,-999.0,-99.9,29.78,North,-999,-999.0,-999.0,-999,-99.99,,,0.00,weatherlink.com 1.10,2013-08-24 13:54:00,
2013-08-24 06:09:00,-999.0,-99.9,29.79,North,-999,-999.0,-999.0,-999,-99.99,,,0.00,weatherlink.com 1.10,2013-08-24 14:09:00,
2013-08-24 06:24:00,-999.0,-99.9,29.80,North,-999,-999.0,-999.0,-999,-99.99,,,0.00,weatherlink.com 1.10,2013-08-24 14:24:00,
2013-08-24 06:39:00,-999.0,-99.9,29.80,North,-999,-999.0,-999.0,-999,-99.99,,,0.00,weatherlink.com 1.10,2013-08-24 14:39:00,
2013-08-24 06:54:00,-999.0,-99.9,29.80,North,-999,-999.0,-999.0,-999,-99.99,,,0.00,weatherlink.com 1.10,2013-08-24 14:54:00,
2013-08-24 07:10:00,-999.0,-99.9,29.81,North,-999,-999.0,-999.0,-999,-99.99,,,0.00,weatherlink.com 1.10,2013-08-24 15:10:00,
2013-08-24 07:25:00,-999.0,-99.9,29.81,North,-999,-999.0,-999.0,-999,-99.99,,,0.00,weatherlink.com 1.10,2013-08-24 15:25:00,
2013-08-24 07:40:00,-999.0,-99.9,29.82,North,-999,-999.0,-999.0,-999,-99.99,,,0.00,weatherlink.com 1.10,2013-08-24 15:40:00,
2013-08-24 07:55:00,-999.0,-99.9,29.83,North,-999,-999.0,-999.0,-999,-99.99,,,0.00,weatherlink.com 1.10,2013-08-24 15:55:00,
2013-08-24 08:10:00,-999.0,-99.9,29.84,North,-999,-999.0,-999.0,-999,-99.99,,,0.00,weatherlink.com 1.10,2013-08-24 16:10:00,
2013-08-24 08:25:00,-999.0,-99.9,29.84,North,-999,-999.0,-999.0,-999,-99.99,,,0.00,weatherlink.com 1.10,2013-08-24 16:25:00,
2013-08-24 08:40:00,-999.0,-99.9,29.84,North,-999,-999.0,-999.0,-999,-99.99,,,0.00,weatherlink.com 1.10,2013-08-24 16:40:00,
2013-08-24 08:55:00,-999.0,-99.9,29.85,North,-999,-999.0,-999.0,-999,-99.99,,,0.00,weatherlink.com 1.10,2013-08-24 16:55:00,
2013-08-24 09:10:00,-999.0,-99.9,29.85,North,-999,-999.0,-999.0,-999,-99.99,,,0.00,weatherlink.com 1.10,2013-08-24 17:10:00,
2013-08-24 09:25:00,-999.0,-99.9,29.84,North,-999,-999.0,-999.0,-999,-99.99,,,0.00,weatherlink.com 1.10,2013-08-24 17:25:00,
2013-08-24 09:40:00,-999.0,-99.9,29.84,North,-999,-999.0,-999.0,-999,-99.99,,,0.00,weatherlink.com 1.10,2013-08-24 17:40:00,
2013-08-24 09:55:00,-999.0,-99.9,29.85,North,-999,-999.0,-999.0,-999,-99.99,,,0.00,weatherlink.com 1.10,2013-08-24 17:55:00,
2013-08-24 10:10:00,-999.0,-99.9,29.86,North,-999,-999.0,-999.0,-999,-99.99,,,0.00,weatherlink.com 1.10,2013-08-24 18:10:00,
2013-08-24 10:41:00,-999.0,-99.9,29.86,North,-999,-999.0,-999.0,-999,-99.99,,,0.00,weatherlink.com 1.10,2013-08-24 18:41:00,
2013-08-24 10:56:00,-999.0,-99.9,29.86,North,-999,-999.0,-999.0,-999,-99.99,,,0.00,weatherlink.com 1.10,2013-08-24 18:56:00,
2013-08-24 11:11:00,-999.0,-99.9,29.87,North,-999,-999.0,-999.0,-999,-99.99,,,0.00,weatherlink.com 1.10,2013-08-24 19:11:00,
2013-08-24 11:26:00,-999.0,-99.9,29.87,North,-999,-999.0,-999.0,-999,-99.99,,,0.00,weatherlink.com 1.10,2013-08-24 19:26:00,
2013-08-24 11:41:00,-999.0,-99.9,29.87,North,-999,-999.0,-999.0,-999,-99.99,,,0.00,weatherlink.com 1.10,2013-08-24 19:41:00,
2013-08-24 11:56:00,-999.0,-99.9,29.87,North,-999,-999.0,-999.0,-999,-99.99,,,0.00,weatherlink.com 1.10,2013-08-24 19:56:00,
2013-08-24 12:11:00,-999.0,-99.9,29.87,North,-999,-999.0,-999.0,-999,-99.99,,,0.00,weatherlink.com 1.10,2013-08-24 20:11:00,
2013-08-24 12:26:00,-999.0,-99.9,29.87,North,-999,-999.0,-999.0,-999,-99.99,,,0.00,weatherlink.com 1.10,2013-08-24 20:26:00,
2013-08-24 12:41:00,-999.0,-99.9,29.87,North,-999,-999.0,-999.0,-999,-99.99,,,0.00,weatherlink.com 1.10,2013-08-24 20:41:00,
2013-08-24 12:56:00,-999.0,-99.9,29.87,North,-999,-999.0,-999.0,-999,-99.99,,,0.00,weatherlink.com 1.10,2013-08-24 20:56:00,
2013-08-24 13:11:00,-999.0,-99.9,29.87,North,-999,-999.0,-999.0,-999,-99.99,,,0.00,weatherlink.com 1.10,2013-08-24 21:11:00,
2013-08-24 13:26:00,-999.0,-99.9,29.87,North,-999,-999.0,-999.0,-999,-99.99,,,0.00,weatherlink.com 1.10,2013-08-24 21:26:00,
2013-08-24 13:41:00,-999.0,-99.9,29.87,North,-999,-999.0,-999.0,-999,-99.99,,,0.00,weatherlink.com 1.10,2013-08-24 21:41:00,
2013-08-24 13:56:00,52.1,45.0,29.88,North,360,0.0,-999.0,77,-99.99,,,0.00,weatherlink.com 1.10,2013-08-24 21:56:00,
2013-08-24 14:12:00,54.5,46.0,29.88,North,360,0.0,-999.0,72,-99.99,,,0.00,weatherlink.com 1.10,2013-08-24 22:12:00,
2013-08-24 14:27:00,55.0,44.0,29.88,North,360,0.0,-999.0,67,-99.99,,,0.00,weatherlink.com 1.10,2013-08-24 22:27:00,
2013-08-24 14:42:00,56.0,43.0,29.88,North,-999,0.0,-999.0,62,-99.99,,,0.00,weatherlink.com 1.10,2013-08-24 22:42:00,
2013-08-24 14:57:00,56.4,41.0,29.88,North,-999,0.0,-999.0,57,-99.99,,,0.00,weatherlink.com 1.10,2013-08-24 22:57:00,
2013-08-24 15:12:00,57.1,44.0,29.88,North,-999,0.0,-999.0,61,-99.99,,,0.00,weatherlink.com 1.10,2013-08-24 23:12:00,
2013-08-24 15:27:00,57.0,43.0,29.88,North,-999,0.0,-999.0,60,-99.99,,,0.00,weatherlink.com 1.10,2013-08-24 23:27:00,
2013-08-24 15:42:00,57.6,43.0,29.87,North,-999,0.0,-999.0,59,-99.99,,,0.00,weatherlink.com 1.10,2013-08-24 23:42:00,
2013-08-24 15:57:00,57.3,41.0,29.87,North,360,0.0,-999.0,54,-99.99,,,0.00,weatherlink.com 1.10,2013-08-24 23:57:00,
2013-08-24 16:12:00,57.3,42.0,29.87,North,360,0.0,-999.0,58,-99.99,,,0.00,weatherlink.com 1.10,2013-08-25 00:12:00,
2013-08-24 16:27:00,57.5,42.0,29.87,North,360,0.0,-999.0,56,-99.99,,,0.00,weatherlink.com 1.10,2013-08-25 00:27:00,
2013-08-24 16:42:00,56.3,44.0,29.87,North,-999,0.0,-999.0,64,-99.99,,,0.00,weatherlink.com 1.10,2013-08-25 00:42:00,
2013-08-24 16:57:00,55.8,44.0,29.87,North,-999,0.0,-999.0,64,-99.99,,,0.00,weatherlink.com 1.10,2013-08-25 00:57:00,
2013-08-24 17:12:00,56.2,43.0,29.88,North,-999,0.0,-999.0,62,-99.99,,,0.00,weatherlink.com 1.10,2013-08-25 01:12:00,
2013-08-24 17:27:00,55.7,43.0,29.88,North,-999,0.0,-999.0,62,-99.99,,,0.00,weatherlink.com 1.10,2013-08-25 01:27:00,
2013-08-24 17:42:00,54.8,42.0,29.88,North,360,0.0,-999.0,63,-99.99,,,0.00,weatherlink.com 1.10,2013-08-25 01:42:00,
2013-08-24 17:57:00,54.1,41.0,29.88,North,360,0.0,-999.0,62,-99.99,,,0.00,weatherlink.com 1.10,2013-08-25 01:57:00,
2013-08-24 18:12:00,54.4,41.0,29.88,North,360,0.0,-999.0,61,-99.99,,,0.00,weatherlink.com 1.10,2013-08-25 02:12:00,
2013-08-24 18:27:00,54.6,41.0,29.88,North,-999,0.0,-999.0,61,-99.99,,,0.00,weatherlink.com 1.10,2013-08-25 02:27:00,
2013-08-24 18:42:00,54.4,41.0,29.88,North,-999,0.0,-999.0,60,-99.99,,,0.00,weatherlink.com 1.10,2013-08-25 02:42:00,
2013-08-24 18:57:00,54.3,40.0,29.88,North,-999,0.0,-999.0,60,-99.99,,,0.00,weatherlink.com 1.10,2013-08-25 02:57:00,
2013-08-24 19:12:00,53.9,40.0,29.88,North,360,0.0,-999.0,59,-99.99,,,0.00,weatherlink.com 1.10,2013-08-25 03:12:00,
2013-08-24 19:27:00,53.9,40.0,29.88,North,360,0.0,-999.0,59,-99.99,,,0.00,weatherlink.com 1.10,2013-08-25 03:27:00,
2013-08-24 19:42:00,53.8,40.0,29.88,North,360,0.0,-999.0,61,-99.99,,,0.00,weatherlink.com 1.10,2013-08-25 03:42:00,
2013-08-24 19:57:00,-999.0,-99.9,29.88,North,-999,-999.0,-999.0,-999,-99.99,,,0.00,weatherlink.com 1.10,2013-08-25 03:57:00,
2013-08-24 20:12:00,-999.0,-99.9,29.88,North,-999,-999.0,-999.0,-999,-99.99,,,0.00,weatherlink.com 1.10,2013-08-25 04:12:00,
2013-08-24 20:27:00,-999.0,-99.9,29.88,North,-999,-999.0,-999.0,-999,-99.99,,,0.00,weatherlink.com 1.10,2013-08-25 04:27:00,
2013-08-24 20:42:00,-999.0,-99.9,29.88,North,-999,-999.0,-999.0,-999,-99.99,,,0.00,weatherlink.com 1.10,2013-08-25 04:42:00,
2013-08-24 20:57:00,-999.0,-99.9,29.89,North,-999,-999.0,-999.0,-999,-99.99,,,0.00,weatherlink.com 1.10,2013-08-25 04:57:00,
2013-08-24 21:12:00,-999.0,-99.9,29.89,North,-999,-999.0,-999.0,-999,-99.99,,,0.00,weatherlink.com 1.10,2013-08-25 05:12:00,
2013-08-24 21:27:00,-999.0,-99.9,29.89,North,-999,-999.0,-999.0,-999,-99.99,,,0.00,weatherlink.com 1.10,2013-08-25 05:27:00,
2013-08-24 21:42:00,-999.0,-99.9,29.90,North,-999,-999.0,-999.0,-999,-99.99,,,0.00,weatherlink.com 1.10,2013-08-25 05:42:00,
2013-08-24 21:58:00,-999.0,-99.9,29.91,North,-999,-999.0,-999.0,-999,-99.99,,,0.00,weatherlink.com 1.10,2013-08-25 05:58:00,
2013-08-24 22:13:00,-999.0,-99.9,29.91,North,-999,-999.0,-999.0,-999,-99.99,,,0.00,weatherlink.com 1.10,2013-08-25 06:13:00,
2013-08-24 22:28:00,-999.0,-99.9,29.91,North,-999,-999.0,-999.0,-999,-99.99,,,0.00,weatherlink.com 1.10,2013-08-25 06:28:00,
2013-08-24 22:43:00,-999.0,-99.9,29.92,North,-999,-999.0,-999.0,-999,-99.99,,,0.00,weatherlink.com 1.10,2013-08-25 06:43:00,
2013-08-24 22:58:00,-999.0,-99.9,29.92,North,-999,-999.0,-999.0,-999,-99.99,,,0.00,weatherlink.com 1.10,2013-08-25 06:58:00,
2013-08-24 23:13:00,-999.0,-99.9,29.92,North,-999,-999.0,-999.0,-999,-99.99,,,0.00,weatherlink.com 1.10,2013-08-25 07:13:00,
2013-08-24 23:28:00,-999.0,-99.9,29.93,North,-999,-999.0,-999.0,-999,-99.99,,,0.00,weatherlink.com 1.10,2013-08-25 07:28:00,
2013-08-24 23:43:00,-999.0,-99.9,29.93,North,-999,-999.0,-999.0,-999,-99.99,,,0.00,weatherlink.com 1.10,2013-08-25 07:43:00,
2013-08-24 23:58:00,-999.0,-99.9,29.93,North,-999,-999.0,-999.0,-999,-99.99,,,0.00,weatherlink.com 1.10,2013-08-25 07:58:00,